AL10 weather

Frerichs Airport
Gurley, Alabama, United States

Public forecast

Using degrees Fahrenheit for public forecast. Weather courtesy of forecast.io.

Closest aviation weather report (METAR) to Frerichs Airport

Closest report is Redstone Army Air Field, 13.3 nm (24.7 km) W. Retrieved 2019/10/14 18:58 UTC (25 minutes ago):

KHUA 141858Z AUTO 13004KT 10SM CLR 22/07 A3007 RMK AO2 SLP181 T02200071

Closest aviation forecast (TAF) to Frerichs Airport

Closest forecast is Huntsville International Carl T Jones Field, 17.7 nm (32.8 km) W. Retrieved 2019/10/14 18:36 UTC (47 minutes ago):

TAF KHSV 141734Z 1418/1518 VRB03KT P6SM SCT060 BKN250 FM150300 VRB02KT P6SM BKN040 OVC200 FM151500 16007KT P6SM SCT015 BKN030